sensor_id;sensor_type;location;lat;lon;timestamp;pressure;altitude;pressure_sealevel;temperature;humidity
3796;BME280;1913;50.660;7.834;2023-04-19T00:00:47;98055.75;;;9.59;100.00
3796;BME280;1913;50.660;7.834;2023-04-19T00:03:13;98048.28;;;9.48;100.00
3796;BME280;1913;50.660;7.834;2023-04-19T00:05:39;98044.22;;;9.45;100.00
3796;BME280;1913;50.660;7.834;2023-04-19T00:08:06;98047.22;;;9.34;100.00
3796;BME280;1913;50.660;7.834;2023-04-19T00:10:31;98036.56;;;9.35;100.00
3796;BME280;1913;50.660;7.834;2023-04-19T00:12:57;98032.16;;;9.36;100.00
3796;BME280;1913;50.660;7.834;2023-04-19T00:15:22;98028.41;;;9.30;100.00
3796;BME280;1913;50.660;7.834;2023-04-19T00:17:48;98029.31;;;9.15;100.00
3796;BME280;1913;50.660;7.834;2023-04-19T00:20:13;98027.03;;;9.11;100.00
3796;BME280;1913;50.660;7.834;2023-04-19T00:22:39;98021.88;;;9.26;100.00
3796;BME280;1913;50.660;7.834;2023-04-19T00:25:05;98022.78;;;9.10;100.00
3796;BME280;1913;50.660;7.834;2023-04-19T00:27:31;98015.75;;;9.11;100.00
3796;BME280;1913;50.660;7.834;2023-04-19T00:29:56;98014.44;;;9.07;100.00
3796;BME280;1913;50.660;7.834;2023-04-19T00:32:22;98017.19;;;9.14;100.00
3796;BME280;1913;50.660;7.834;2023-04-19T00:34:48;98016.44;;;9.05;100.00
3796;BME280;1913;50.660;7.834;2023-04-19T00:37:13;98012.13;;;9.12;100.00
3796;BME280;1913;50.660;7.834;2023-04-19T00:39:39;98013.47;;;9.08;100.00
3796;BME280;1913;50.660;7.834;2023-04-19T00:42:05;98011.00;;;9.06;100.00
3796;BME280;1913;50.660;7.834;2023-04-19T00:44:30;98015.38;;;9.14;100.00
3796;BME280;1913;50.660;7.834;2023-04-19T00:46:56;98006.75;;;9.05;100.00
3796;BME280;1913;50.660;7.834;2023-04-19T00:49:23;98000.81;;;9.11;100.00
3796;BME280;1913;50.660;7.834;2023-04-19T00:51:49;98009.38;;;9.05;100.00
3796;BME280;1913;50.660;7.834;2023-04-19T00:54:16;97997.19;;;9.13;100.00
3796;BME280;1913;50.660;7.834;2023-04-19T00:56:43;97999.28;;;9.17;100.00
3796;BME280;1913;50.660;7.834;2023-04-19T00:59:10;97997.19;;;9.13;100.00
3796;BME280;1913;50.660;7.834;2023-04-19T01:01:37;97995.41;;;9.13;100.00
3796;BME280;1913;50.660;7.834;2023-04-19T01:04:04;97993.47;;;9.07;100.00
3796;BME280;1913;50.660;7.834;2023-04-19T01:06:29;97993.13;;;9.10;100.00
3796;BME280;1913;50.660;7.834;2023-04-19T01:08:56;97999.88;;;9.04;100.00
3796;BME280;1913;50.660;7.834;2023-04-19T01:11:25;97990.72;;;9.00;100.00
3796;BME280;1913;50.660;7.834;2023-04-19T01:13:50;97996.44;;;9.04;100.00
3796;BME280;1913;50.660;7.834;2023-04-19T01:16:17;97998.13;;;8.97;100.00
3796;BME280;1913;50.660;7.834;2023-04-19T01:18:42;97998.63;;;8.92;100.00
3796;BME280;1913;50.660;7.834;2023-04-19T01:21:08;97995.97;;;9.00;100.00
3796;BME280;1913;50.660;7.834;2023-04-19T01:23:34;97988.59;;;9.04;100.00
3796;BME280;1913;50.660;7.834;2023-04-19T01:26:03;97995.59;;;9.03;100.00
3796;BME280;1913;50.660;7.834;2023-04-19T01:28:29;97982.88;;;9.00;100.00
3796;BME280;1913;50.660;7.834;2023-04-19T01:30:54;97984.97;;;9.05;100.00
3796;BME280;1913;50.660;7.834;2023-04-19T01:33:20;97979.88;;;9.03;100.00
3796;BME280;1913;50.660;7.834;2023-04-19T01:35:46;97987.78;;;8.95;100.00
3796;BME280;1913;50.660;7.834;2023-04-19T01:38:12;97983.34;;;9.04;100.00
3796;BME280;1913;50.660;7.834;2023-04-19T01:40:38;97981.28;;;9.14;100.00
3796;BME280;1913;50.660;7.834;2023-04-19T01:43:05;97985.97;;;8.96;100.00
3796;BME280;1913;50.660;7.834;2023-04-19T01:45:30;97976.22;;;9.13;100.00
3796;BME280;1913;50.660;7.834;2023-04-19T01:47:58;97967.25;;;9.07;100.00
3796;BME280;1913;50.660;7.834;2023-04-19T01:50:25;97973.78;;;9.11;100.00
3796;BME280;1913;50.660;7.834;2023-04-19T01:52:51;97972.00;;;9.03;100.00
3796;BME280;1913;50.660;7.834;2023-04-19T01:55:17;97971.53;;;9.00;100.00
3796;BME280;1913;50.660;7.834;2023-04-19T01:57:42;97964.66;;;8.99;100.00
3796;BME280;1913;50.660;7.834;2023-04-19T02:00:09;97959.91;;;9.02;100.00
3796;BME280;1913;50.660;7.834;2023-04-19T02:02:36;97967.38;;;9.14;100.00
3796;BME280;1913;50.660;7.834;2023-04-19T02:05:02;97966.56;;;9.13;100.00
3796;BME280;1913;50.660;7.834;2023-04-19T02:07:27;97963.94;;;9.13;100.00
3796;BME280;1913;50.660;7.834;2023-04-19T02:09:53;97961.03;;;9.08;100.00
3796;BME280;1913;50.660;7.834;2023-04-19T02:12:19;97961.97;;;9.15;100.00
3796;BME280;1913;50.660;7.834;2023-04-19T02:14:44;97952.69;;;9.04;100.00
3796;BME280;1913;50.660;7.834;2023-04-19T02:17:10;97960.97;;;9.16;100.00
3796;BME280;1913;50.660;7.834;2023-04-19T02:19:36;97953.09;;;9.16;100.00
3796;BME280;1913;50.660;7.834;2023-04-19T02:22:01;97956.66;;;9.23;100.00
3796;BME280;1913;50.660;7.834;2023-04-19T02:24:27;97959.94;;;9.25;100.00
3796;BME280;1913;50.660;7.834;2023-04-19T02:26:52;97955.31;;;9.27;100.00
3796;BME280;1913;50.660;7.834;2023-04-19T02:29:18;97955.88;;;9.38;100.00
3796;BME280;1913;50.660;7.834;2023-04-19T02:31:44;97955.00;;;9.45;100.00
3796;BME280;1913;50.660;7.834;2023-04-19T02:34:11;97952.97;;;9.55;100.00
3796;BME280;1913;50.660;7.834;2023-04-19T02:36:36;97947.38;;;9.58;100.00
3796;BME280;1913;50.660;7.834;2023-04-19T02:39:02;97957.22;;;9.56;100.00
3796;BME280;1913;50.660;7.834;2023-04-19T02:41:27;97956.50;;;9.63;100.00
3796;BME280;1913;50.660;7.834;2023-04-19T02:43:53;97953.34;;;9.67;100.00
3796;BME280;1913;50.660;7.834;2023-04-19T02:46:18;97946.09;;;9.54;100.00
3796;BME280;1913;50.660;7.834;2023-04-19T02:48:43;97948.25;;;9.51;100.00
3796;BME280;1913;50.660;7.834;2023-04-19T02:51:16;97949.72;;;9.53;100.00
3796;BME280;1913;50.660;7.834;2023-04-19T02:53:42;97945.06;;;9.41;100.00
3796;BME280;1913;50.660;7.834;2023-04-19T02:56:08;97940.84;;;9.54;100.00
3796;BME280;1913;50.660;7.834;2023-04-19T02:58:33;97946.06;;;9.40;100.00
3796;BME280;1913;50.660;7.834;2023-04-19T03:00:59;97947.22;;;9.75;100.00
3796;BME280;1913;50.660;7.834;2023-04-19T03:03:24;97949.31;;;9.79;100.00
3796;BME280;1913;50.660;7.834;2023-04-19T03:05:51;97953.19;;;9.83;100.00
3796;BME280;1913;50.660;7.834;2023-04-19T03:08:17;97949.31;;;9.79;100.00
3796;BME280;1913;50.660;7.834;2023-04-19T03:10:42;97952.19;;;9.70;100.00
3796;BME280;1913;50.660;7.834;2023-04-19T03:13:08;97947.94;;;9.83;100.00
3796;BME280;1913;50.660;7.834;2023-04-19T03:15:33;97944.16;;;9.71;100.00
3796;BME280;1913;50.660;7.834;2023-04-19T03:17:59;97943.50;;;9.69;100.00
3796;BME280;1913;50.660;7.834;2023-04-19T03:20:24;97944.69;;;9.81;100.00
3796;BME280;1913;50.660;7.834;2023-04-19T03:22:50;97933.66;;;9.71;100.00
3796;BME280;1913;50.660;7.834;2023-04-19T03:25:15;97940.22;;;9.67;100.00
3796;BME280;1913;50.660;7.834;2023-04-19T03:27:41;97933.81;;;9.70;100.00
3796;BME280;1913;50.660;7.834;2023-04-19T03:30:10;97934.09;;;9.75;100.00
3796;BME280;1913;50.660;7.834;2023-04-19T03:32:36;97934.16;;;9.67;100.00
3796;BME280;1913;50.660;7.834;2023-04-19T03:35:01;97934.56;;;9.78;100.00
3796;BME280;1913;50.660;7.834;2023-04-19T03:37:27;97929.56;;;9.69;100.00
3796;BME280;1913;50.660;7.834;2023-04-19T03:39:53;97924.78;;;9.49;100.00
3796;BME280;1913;50.660;7.834;2023-04-19T03:42:18;97926.09;;;9.53;100.00
3796;BME280;1913;50.660;7.834;2023-04-19T03:44:44;97926.63;;;9.64;100.00
3796;BME280;1913;50.660;7.834;2023-04-19T03:47:09;97925.22;;;9.61;100.00
3796;BME280;1913;50.660;7.834;2023-04-19T03:49:35;97923.88;;;9.80;100.00
3796;BME280;1913;50.660;7.834;2023-04-19T03:52:00;97922.81;;;9.89;100.00
3796;BME280;1913;50.660;7.834;2023-04-19T03:54:26;97920.97;;;9.75;100.00
3796;BME280;1913;50.660;7.834;2023-04-19T03:56:51;97920.78;;;9.76;100.00
3796;BME280;1913;50.660;7.834;2023-04-19T03:59:16;97917.59;;;9.66;100.00
3796;BME280;1913;50.660;7.834;2023-04-19T04:01:42;97917.91;;;9.71;100.00
3796;BME280;1913;50.660;7.834;2023-04-19T04:04:07;97916.91;;;9.34;100.00
3796;BME280;1913;50.660;7.834;2023-04-19T04:06:33;97915.16;;;9.50;100.00
3796;BME280;1913;50.660;7.834;2023-04-19T04:08:59;97920.97;;;9.37;100.00
3796;BME280;1913;50.660;7.834;2023-04-19T04:11:25;97918.03;;;9.55;100.00
3796;BME280;1913;50.660;7.834;2023-04-19T04:13:50;97917.34;;;9.61;100.00
3796;BME280;1913;50.660;7.834;2023-04-19T04:16:16;97918.22;;;9.53;100.00
3796;BME280;1913;50.660;7.834;2023-04-19T04:18:42;97920.41;;;9.65;100.00
3796;BME280;1913;50.660;7.834;2023-04-19T04:21:07;97918.53;;;9.73;100.00
3796;BME280;1913;50.660;7.834;2023-04-19T04:23:33;97923.31;;;9.70;100.00
3796;BME280;1913;50.660;7.834;2023-04-19T04:25:59;97915.78;;;9.67;100.00
3796;BME280;1913;50.660;7.834;2023-04-19T04:28:28;97916.78;;;9.66;100.00
3796;BME280;1913;50.660;7.834;2023-04-19T04:30:56;97911.44;;;9.59;100.00
3796;BME280;1913;50.660;7.834;2023-04-19T04:33:26;97919.03;;;9.54;100.00
3796;BME280;1913;50.660;7.834;2023-04-19T04:35:55;97922.81;;;9.51;100.00
3796;BME280;1913;50.660;7.834;2023-04-19T04:38:22;97919.22;;;9.67;100.00
3796;BME280;1913;50.660;7.834;2023-04-19T04:40:54;97918.50;;;9.58;100.00
3796;BME280;1913;50.660;7.834;2023-04-19T04:43:24;97917.50;;;9.59;100.00
3796;BME280;1913;50.660;7.834;2023-04-19T04:45:50;97921.78;;;9.61;100.00
3796;BME280;1913;50.660;7.834;2023-04-19T04:48:16;97914.50;;;9.48;100.00
3796;BME280;1913;50.660;7.834;2023-04-19T04:50:42;97915.22;;;9.56;100.00
3796;BME280;1913;50.660;7.834;2023-04-19T04:53:08;97913.13;;;9.52;100.00
3796;BME280;1913;50.660;7.834;2023-04-19T04:55:33;97911.50;;;9.36;100.00
3796;BME280;1913;50.660;7.834;2023-04-19T04:57:59;97904.66;;;9.50;100.00
3796;BME280;1913;50.660;7.834;2023-04-19T05:00:25;97914.91;;;9.37;100.00
3796;BME280;1913;50.660;7.834;2023-04-19T05:02:50;97913.22;;;9.44;100.00
3796;BME280;1913;50.660;7.834;2023-04-19T05:05:16;97917.47;;;9.45;100.00
3796;BME280;1913;50.660;7.834;2023-04-19T05:07:41;97914.84;;;9.45;100.00
3796;BME280;1913;50.660;7.834;2023-04-19T05:10:07;97915.66;;;9.45;100.00
3796;BME280;1913;50.660;7.834;2023-04-19T05:12:33;97909.72;;;9.51;100.00
3796;BME280;1913;50.660;7.834;2023-04-19T05:14:58;97911.69;;;9.49;100.00
3796;BME280;1913;50.660;7.834;2023-04-19T05:17:24;97912.59;;;9.56;100.00
3796;BME280;1913;50.660;7.834;2023-04-19T05:19:49;97913.94;;;9.52;100.00
3796;BME280;1913;50.660;7.834;2023-04-19T05:22:15;97903.66;;;9.51;100.00
3796;BME280;1913;50.660;7.834;2023-04-19T05:24:41;97905.28;;;9.67;100.00
3796;BME280;1913;50.660;7.834;2023-04-19T05:27:06;97913.72;;;9.77;100.00
3796;BME280;1913;50.660;7.834;2023-04-19T05:29:32;97911.56;;;9.80;100.00
3796;BME280;1913;50.660;7.834;2023-04-19T05:31:57;97910.66;;;9.88;100.00
3796;BME280;1913;50.660;7.834;2023-04-19T05:34:23;97910.94;;;9.78;100.00
3796;BME280;1913;50.660;7.834;2023-04-19T05:36:49;97895.19;;;9.93;100.00
3796;BME280;1913;50.660;7.834;2023-04-19T05:39:14;97908.38;;;9.85;100.00
3796;BME280;1913;50.660;7.834;2023-04-19T05:41:41;97914.53;;;9.77;100.00
3796;BME280;1913;50.660;7.834;2023-04-19T05:44:06;97913.03;;;9.98;100.00
3796;BME280;1913;50.660;7.834;2023-04-19T05:46:32;97896.81;;;9.94;100.00
3796;BME280;1913;50.660;7.834;2023-04-19T05:48:57;97903.53;;;10.12;100.00
3796;BME280;1913;50.660;7.834;2023-04-19T05:51:22;97902.53;;;10.27;100.00
3796;BME280;1913;50.660;7.834;2023-04-19T05:53:48;97900.78;;;10.20;100.00
3796;BME280;1913;50.660;7.834;2023-04-19T05:56:14;97909.50;;;10.35;100.00
3796;BME280;1913;50.660;7.834;2023-04-19T05:58:39;97906.34;;;10.25;100.00
3796;BME280;1913;50.660;7.834;2023-04-19T06:01:05;97909.13;;;10.38;100.00
3796;BME280;1913;50.660;7.834;2023-04-19T06:03:31;97907.59;;;10.44;100.00
3796;BME280;1913;50.660;7.834;2023-04-19T06:05:58;97909.88;;;10.47;100.00
3796;BME280;1913;50.660;7.834;2023-04-19T06:08:23;97901.13;;;10.61;100.00
3796;BME280;1913;50.660;7.834;2023-04-19T06:10:49;97904.59;;;10.47;100.00
3796;BME280;1913;50.660;7.834;2023-04-19T06:13:15;97904.50;;;10.55;100.00
3796;BME280;1913;50.660;7.834;2023-04-19T06:15:40;97907.09;;;10.91;100.00
3796;BME280;1913;50.660;7.834;2023-04-19T06:18:06;97897.09;;;10.80;100.00
3796;BME280;1913;50.660;7.834;2023-04-19T06:20:38;97902.28;;;10.95;100.00
3796;BME280;1913;50.660;7.834;2023-04-19T06:23:04;97905.50;;;10.90;100.00
3796;BME280;1913;50.660;7.834;2023-04-19T06:25:30;97896.72;;;10.83;100.00
3796;BME280;1913;50.660;7.834;2023-04-19T06:27:56;97900.88;;;10.92;100.00
3796;BME280;1913;50.660;7.834;2023-04-19T06:30:21;97902.66;;;10.92;100.00
3796;BME280;1913;50.660;7.834;2023-04-19T06:32:47;97903.91;;;10.74;100.00
3796;BME280;1913;50.660;7.834;2023-04-19T06:35:13;97898.25;;;10.92;100.00
3796;BME280;1913;50.660;7.834;2023-04-19T06:37:38;97894.59;;;10.72;100.00
3796;BME280;1913;50.660;7.834;2023-04-19T06:40:05;97892.25;;;10.62;100.00
3796;BME280;1913;50.660;7.834;2023-04-19T06:42:35;97899.63;;;10.73;100.00
3796;BME280;1913;50.660;7.834;2023-04-19T06:45:00;97907.75;;;10.93;100.00
3796;BME280;1913;50.660;7.834;2023-04-19T06:47:26;97894.72;;;10.85;100.00
3796;BME280;1913;50.660;7.834;2023-04-19T06:49:52;97900.91;;;10.99;100.00
3796;BME280;1913;50.660;7.834;2023-04-19T06:52:18;97899.44;;;11.11;100.00
3796;BME280;1913;50.660;7.834;2023-04-19T06:54:48;97907.69;;;11.08;100.00
3796;BME280;1913;50.660;7.834;2023-04-19T06:57:15;97893.84;;;11.21;100.00
3796;BME280;1913;50.660;7.834;2023-04-19T06:59:40;97899.97;;;11.49;100.00
3796;BME280;1913;50.660;7.834;2023-04-19T07:02:06;97895.41;;;11.37;100.00
3796;BME280;1913;50.660;7.834;2023-04-19T07:04:31;97896.59;;;11.34;100.00
3796;BME280;1913;50.660;7.834;2023-04-19T07:06:57;97899.16;;;11.27;100.00
3796;BME280;1913;50.660;7.834;2023-04-19T07:09:22;97895.88;;;11.47;100.00
3796;BME280;1913;50.660;7.834;2023-04-19T07:11:48;97901.28;;;11.39;100.00
3796;BME280;1913;50.660;7.834;2023-04-19T07:14:16;97892.78;;;11.15;100.00
3796;BME280;1913;50.660;7.834;2023-04-19T07:16:43;97895.94;;;11.54;100.00
3796;BME280;1913;50.660;7.834;2023-04-19T07:19:09;97894.50;;;11.79;100.00
3796;BME280;1913;50.660;7.834;2023-04-19T07:21:34;97895.00;;;12.24;100.00
3796;BME280;1913;50.660;7.834;2023-04-19T07:24:00;97890.97;;;12.89;100.00
3796;BME280;1913;50.660;7.834;2023-04-19T07:26:25;97881.50;;;13.55;100.00
3796;BME280;1913;50.660;7.834;2023-04-19T07:28:51;97889.38;;;13.95;91.95
3796;BME280;1913;50.660;7.834;2023-04-19T07:31:17;97879.38;;;14.17;93.15
3796;BME280;1913;50.660;7.834;2023-04-19T07:33:43;97884.06;;;14.08;84.95
3796;BME280;1913;50.660;7.834;2023-04-19T07:36:09;97877.50;;;14.24;77.76
3796;BME280;1913;50.660;7.834;2023-04-19T07:38:34;97883.22;;;14.14;77.96
3796;BME280;1913;50.660;7.834;2023-04-19T07:41:00;97891.59;;;13.05;86.73
3796;BME280;1913;50.660;7.834;2023-04-19T07:43:26;97890.50;;;12.59;90.35
3796;BME280;1913;50.660;7.834;2023-04-19T07:45:53;97890.59;;;13.19;89.71
3796;BME280;1913;50.660;7.834;2023-04-19T07:48:19;97883.81;;;12.77;93.83
3796;BME280;1913;50.660;7.834;2023-04-19T07:50:44;97879.75;;;12.67;91.88
3796;BME280;1913;50.660;7.834;2023-04-19T07:53:10;97880.22;;;13.04;92.43
3796;BME280;1913;50.660;7.834;2023-04-19T07:55:35;97869.88;;;13.89;86.33
3796;BME280;1913;50.660;7.834;2023-04-19T07:58:01;97864.22;;;13.72;81.81
3796;BME280;1913;50.660;7.834;2023-04-19T08:00:27;97865.53;;;14.21;82.95
3796;BME280;1913;50.660;7.834;2023-04-19T08:02:55;97867.13;;;14.80;71.79
3796;BME280;1913;50.660;7.834;2023-04-19T08:05:21;97864.34;;;15.25;72.09
3796;BME280;1913;50.660;7.834;2023-04-19T08:07:47;97868.09;;;15.43;66.19
3796;BME280;1913;50.660;7.834;2023-04-19T08:10:13;97864.22;;;15.45;63.88
3796;BME280;1913;50.660;7.834;2023-04-19T08:12:39;97865.88;;;15.40;59.15
3796;BME280;1913;50.660;7.834;2023-04-19T08:15:06;97869.84;;;14.99;58.24
3796;BME280;1913;50.660;7.834;2023-04-19T08:17:32;97866.50;;;14.78;60.43
3796;BME280;1913;50.660;7.834;2023-04-19T08:19:57;97862.25;;;15.09;59.66
3796;BME280;1913;50.660;7.834;2023-04-19T08:22:23;97870.84;;;14.66;59.52
3796;BME280;1913;50.660;7.834;2023-04-19T08:24:49;97871.03;;;15.03;60.87
3796;BME280;1913;50.660;7.834;2023-04-19T08:27:17;97864.31;;;15.00;58.72
3796;BME280;1913;50.660;7.834;2023-04-19T08:29:43;97868.09;;;15.43;58.95
3796;BME280;1913;50.660;7.834;2023-04-19T08:32:08;97863.63;;;16.42;56.08
3796;BME280;1913;50.660;7.834;2023-04-19T08:34:34;97866.81;;;17.11;50.73
3796;BME280;1913;50.660;7.834;2023-04-19T08:37:03;97867.19;;;16.17;49.44
3796;BME280;1913;50.660;7.834;2023-04-19T08:39:32;97873.09;;;16.19;50.40
3796;BME280;1913;50.660;7.834;2023-04-19T08:42:03;97869.41;;;16.02;48.94
3796;BME280;1913;50.660;7.834;2023-04-19T08:44:31;97871.81;;;16.03;48.13
3796;BME280;1913;50.660;7.834;2023-04-19T08:46:57;97877.41;;;15.95;49.78
3796;BME280;1913;50.660;7.834;2023-04-19T08:49:23;97864.16;;;16.14;51.00
3796;BME280;1913;50.660;7.834;2023-04-19T08:51:49;97865.13;;;16.38;50.03
3796;BME280;1913;50.660;7.834;2023-04-19T08:54:15;97862.31;;;16.51;48.53
3796;BME280;1913;50.660;7.834;2023-04-19T08:56:42;97863.75;;;16.65;48.50
3796;BME280;1913;50.660;7.834;2023-04-19T08:59:08;97867.38;;;16.52;49.05
3796;BME280;1913;50.660;7.834;2023-04-19T09:01:33;97868.44;;;16.82;49.05
3796;BME280;1913;50.660;7.834;2023-04-19T09:03:59;97865.63;;;16.28;48.50
3796;BME280;1913;50.660;7.834;2023-04-19T09:06:24;97871.81;;;16.03;48.86
3796;BME280;1913;50.660;7.834;2023-04-19T09:08:51;97872.63;;;15.61;48.03
3796;BME280;1913;50.660;7.834;2023-04-19T09:11:35;97867.78;;;14.69;48.61
3796;BME280;1913;50.660;7.834;2023-04-19T09:14:13;97871.50;;;14.93;50.86
3796;BME280;1913;50.660;7.834;2023-04-19T09:16:39;97861.00;;;15.12;50.22
3796;BME280;1913;50.660;7.834;2023-04-19T09:19:05;97860.75;;;15.45;50.27
3796;BME280;1913;50.660;7.834;2023-04-19T09:21:32;97861.59;;;14.82;50.38
3796;BME280;1913;50.660;7.834;2023-04-19T09:23:59;97852.44;;;15.41;49.19
3796;BME280;1913;50.660;7.834;2023-04-19T09:26:25;97859.06;;;14.94;48.39
3796;BME280;1913;50.660;7.834;2023-04-19T09:29:01;97856.78;;;15.04;47.89
3796;BME280;1913;50.660;7.834;2023-04-19T09:31:29;97850.94;;;14.95;49.46
3796;BME280;1913;50.660;7.834;2023-04-19T09:33:55;97848.75;;;15.67;45.89
3796;BME280;1913;50.660;7.834;2023-04-19T09:36:31;97847.97;;;15.60;43.89
3796;BME280;1913;50.660;7.834;2023-04-19T09:38:58;97844.66;;;15.90;43.84
3796;BME280;1913;50.660;7.834;2023-04-19T09:41:25;97846.50;;;15.89;44.42
3796;BME280;1913;50.660;7.834;2023-04-19T09:43:51;97832.22;;;15.90;42.25
3796;BME280;1913;50.660;7.834;2023-04-19T09:46:31;97834.94;;;16.02;42.06
3796;BME280;1913;50.660;7.834;2023-04-19T09:51:42;97830.91;;;16.48;40.77
3796;BME280;1913;50.660;7.834;2023-04-19T09:54:09;97833.22;;;15.89;40.51
3796;BME280;1913;50.660;7.834;2023-04-19T09:56:36;97815.72;;;15.88;39.46
3796;BME280;1913;50.660;7.834;2023-04-19T09:59:02;97824.34;;;15.84;39.62
3796;BME280;1913;50.660;7.834;2023-04-19T10:01:29;97814.19;;;15.80;39.40
3796;BME280;1913;50.660;7.834;2023-04-19T10:03:58;97810.03;;;16.03;38.32
3796;BME280;1913;50.660;7.834;2023-04-19T10:06:25;97820.88;;;16.20;37.37
3796;BME280;1913;50.660;7.834;2023-04-19T10:08:52;97814.69;;;15.89;34.99
3796;BME280;1913;50.660;7.834;2023-04-19T10:11:22;97818.50;;;16.30;37.90
3796;BME280;1913;50.660;7.834;2023-04-19T10:13:54;97817.56;;;16.55;37.09
3796;BME280;1913;50.660;7.834;2023-04-19T10:16:21;97825.69;;;16.90;34.28
3796;BME280;1913;50.660;7.834;2023-04-19T10:18:49;97817.53;;;17.15;35.61
3796;BME280;1913;50.660;7.834;2023-04-19T10:21:18;97820.75;;;17.64;33.64
3796;BME280;1913;50.660;7.834;2023-04-19T10:23:44;97807.03;;;17.43;32.40
3796;BME280;1913;50.660;7.834;2023-04-19T10:26:10;97812.56;;;17.30;31.26
3796;BME280;1913;50.660;7.834;2023-04-19T10:28:35;97810.56;;;17.02;33.21
3796;BME280;1913;50.660;7.834;2023-04-19T10:31:03;97799.50;;;17.29;32.65
3796;BME280;1913;50.660;7.834;2023-04-19T10:33:33;97802.88;;;17.83;34.14
3796;BME280;1913;50.660;7.834;2023-04-19T10:36:00;97793.41;;;17.87;31.72
3796;BME280;1913;50.660;7.834;2023-04-19T10:38:38;97792.69;;;19.06;32.48
3796;BME280;1913;50.660;7.834;2023-04-19T10:41:05;97797.66;;;18.28;33.06
3796;BME280;1913;50.660;7.834;2023-04-19T10:43:42;97797.53;;;18.35;31.91
3796;BME280;1913;50.660;7.834;2023-04-19T10:48:50;97791.50;;;18.68;30.82
3796;BME280;1913;50.660;7.834;2023-04-19T10:51:22;97778.88;;;19.43;31.40
3796;BME280;1913;50.660;7.834;2023-04-19T10:53:57;97774.09;;;20.05;30.32
3796;BME280;1913;50.660;7.834;2023-04-19T11:04:02;97774.94;;;19.28;27.94
3796;BME280;1913;50.660;7.834;2023-04-19T11:06:28;97769.03;;;19.26;26.00
3796;BME280;1913;50.660;7.834;2023-04-19T11:08:53;97769.13;;;19.70;27.30
3796;BME280;1913;50.660;7.834;2023-04-19T11:11:19;97783.88;;;19.39;25.70
3796;BME280;1913;50.660;7.834;2023-04-19T11:13:49;97765.91;;;18.50;25.14
3796;BME280;1913;50.660;7.834;2023-04-19T11:16:14;97770.91;;;18.35;26.20
3796;BME280;1913;50.660;7.834;2023-04-19T11:18:40;97781.25;;;17.32;27.56
3796;BME280;1913;50.660;7.834;2023-04-19T11:21:05;97773.00;;;16.45;27.58
3796;BME280;1913;50.660;7.834;2023-04-19T11:23:31;97768.53;;;16.57;27.73
3796;BME280;1913;50.660;7.834;2023-04-19T11:25:57;97759.88;;;17.62;28.67
3796;BME280;1913;50.660;7.834;2023-04-19T11:28:22;97753.63;;;16.74;27.73
3796;BME280;1913;50.660;7.834;2023-04-19T11:30:48;97751.91;;;17.86;28.09
3796;BME280;1913;50.660;7.834;2023-04-19T11:33:14;97746.75;;;17.44;24.09
3796;BME280;1913;50.660;7.834;2023-04-19T11:35:39;97745.44;;;18.39;24.64
3796;BME280;1913;50.660;7.834;2023-04-19T11:38:05;97738.03;;;17.84;25.73
3796;BME280;1913;50.660;7.834;2023-04-19T11:40:31;97744.50;;;17.88;24.31
3796;BME280;1913;50.660;7.834;2023-04-19T11:42:58;97743.84;;;18.09;24.63
3796;BME280;1913;50.660;7.834;2023-04-19T11:45:35;97735.28;;;18.81;25.05
3796;BME280;1913;50.660;7.834;2023-04-19T11:48:03;97740.44;;;18.26;22.57
3796;BME280;1913;50.660;7.834;2023-04-19T11:52:54;97732.09;;;19.35;23.92
3796;BME280;1913;50.660;7.834;2023-04-19T11:55:20;97740.44;;;19.77;23.20
3796;BME280;1913;50.660;7.834;2023-04-19T11:57:46;97722.72;;;19.10;21.91
3796;BME280;1913;50.660;7.834;2023-04-19T12:00:13;97717.38;;;19.49;23.15
3796;BME280;1913;50.660;7.834;2023-04-19T12:02:41;97726.00;;;19.56;22.32
3796;BME280;1913;50.660;7.834;2023-04-19T12:05:14;97726.28;;;19.38;22.76
3796;BME280;1913;50.660;7.834;2023-04-19T12:08:00;97723.19;;;19.85;22.75
3796;BME280;1913;50.660;7.834;2023-04-19T12:10:25;97717.53;;;20.30;22.88
3796;BME280;1913;50.660;7.834;2023-04-19T12:12:51;97722.03;;;20.25;23.93
3796;BME280;1913;50.660;7.834;2023-04-19T12:15:17;97715.19;;;20.34;22.77
3796;BME280;1913;50.660;7.834;2023-04-19T12:17:59;97712.53;;;20.07;25.08
3796;BME280;1913;50.660;7.834;2023-04-19T12:20:32;97712.72;;;20.27;24.03
3796;BME280;1913;50.660;7.834;2023-04-19T12:22:59;97701.75;;;19.75;22.61
3796;BME280;1913;50.660;7.834;2023-04-19T12:25:29;97704.44;;;20.51;22.15
3796;BME280;1913;50.660;7.834;2023-04-19T12:27:55;97700.19;;;20.87;21.70
3796;BME280;1913;50.660;7.834;2023-04-19T12:30:20;97698.16;;;20.99;20.73
3796;BME280;1913;50.660;7.834;2023-04-19T12:32:46;97695.09;;;21.81;19.15
3796;BME280;1913;50.660;7.834;2023-04-19T12:35:11;97695.41;;;20.57;22.85
3796;BME280;1913;50.660;7.834;2023-04-19T12:37:37;97690.28;;;20.83;21.70
3796;BME280;1913;50.660;7.834;2023-04-19T12:40:02;97689.94;;;20.47;22.68
3796;BME280;1913;50.660;7.834;2023-04-19T12:42:28;97691.31;;;20.49;22.08
3796;BME280;1913;50.660;7.834;2023-04-19T12:44:54;97684.75;;;20.62;22.81
3796;BME280;1913;50.660;7.834;2023-04-19T12:47:20;97679.09;;;20.53;23.01
3796;BME280;1913;50.660;7.834;2023-04-19T12:49:45;97673.66;;;20.75;22.83
3796;BME280;1913;50.660;7.834;2023-04-19T12:52:11;97671.69;;;21.40;21.99
3796;BME280;1913;50.660;7.834;2023-04-19T12:54:36;97672.53;;;21.51;22.71
3796;BME280;1913;50.660;7.834;2023-04-19T12:57:02;97676.78;;;21.42;20.87
3796;BME280;1913;50.660;7.834;2023-04-19T12:59:28;97681.91;;;20.74;21.14
3796;BME280;1913;50.660;7.834;2023-04-19T13:01:53;97678.88;;;19.40;20.83
3796;BME280;1913;50.660;7.834;2023-04-19T13:04:19;97677.97;;;19.51;22.09
3796;BME280;1913;50.660;7.834;2023-04-19T13:06:45;97665.28;;;20.34;21.67
3796;BME280;1913;50.660;7.834;2023-04-19T13:09:10;97665.16;;;19.70;19.78
3796;BME280;1913;50.660;7.834;2023-04-19T13:11:36;97656.47;;;18.47;21.24
3796;BME280;1913;50.660;7.834;2023-04-19T13:14:01;97665.25;;;18.47;22.18
3796;BME280;1913;50.660;7.834;2023-04-19T13:16:27;97652.59;;;19.27;21.78
3796;BME280;1913;50.660;7.834;2023-04-19T13:18:53;97643.84;;;19.97;21.32
3796;BME280;1913;50.660;7.834;2023-04-19T13:21:19;97638.72;;;20.82;21.29
3796;BME280;1913;50.660;7.834;2023-04-19T13:23:45;97641.03;;;20.09;21.50
3796;BME280;1913;50.660;7.834;2023-04-19T13:26:10;97653.41;;;20.20;21.49
3796;BME280;1913;50.660;7.834;2023-04-19T13:28:36;97638.19;;;19.67;20.95
3796;BME280;1913;50.660;7.834;2023-04-19T13:31:03;97634.03;;;19.32;22.45